createdAt,value
2022-12-26T00:01:10.989Z,128.70
2022-12-26T00:03:38.790Z,133.15
2022-12-26T00:06:18.750Z,119.20
2022-12-26T00:08:47.786Z,122.60
2022-12-26T00:11:15.450Z,121.55
2022-12-26T00:13:43.017Z,113.95
2022-12-26T00:16:13.088Z,116.53
2022-12-26T00:18:40.563Z,121.15
2022-12-26T00:21:09.736Z,126.20
2022-12-26T00:23:37.611Z,125.32
2022-12-26T00:26:18.990Z,123.60
2022-12-26T00:28:46.905Z,117.68
2022-12-26T00:31:26.130Z,113.25
2022-12-26T00:33:54.378Z,108.50
2022-12-26T00:36:29.105Z,121.15
2022-12-26T00:38:57.466Z,117.70
2022-12-26T00:41:25.406Z,104.53
2022-12-26T00:43:53.010Z,103.57
2022-12-26T00:46:20.852Z,108.07
2022-12-26T00:48:48.804Z,100.85
2022-12-26T00:51:16.664Z,94.38
2022-12-26T00:53:44.492Z,88.88
2022-12-26T00:56:11.802Z,97.10
2022-12-26T00:58:40.555Z,89.60
2022-12-26T01:01:20.211Z,89.95
2022-12-26T01:03:49.000Z,85.10
2022-12-26T01:06:16.910Z,85.80
2022-12-26T01:08:44.552Z,85.22
2022-12-26T01:11:14.574Z,87.57
2022-12-26T01:13:42.373Z,80.97
2022-12-26T01:16:09.861Z,87.50
2022-12-26T01:18:37.981Z,91.25
2022-12-26T01:21:11.220Z,88.32
2022-12-26T01:23:38.591Z,85.18
2022-12-26T01:26:17.936Z,80.95
2022-12-26T01:28:50.837Z,85.90
2022-12-26T01:31:18.824Z,84.75
2022-12-26T01:33:46.594Z,82.40
2022-12-26T01:36:14.535Z,82.20
2022-12-26T01:38:41.818Z,81.70
2022-12-26T01:41:20.020Z,78.25
2022-12-26T01:44:00.234Z,78.72
2022-12-26T01:46:40.807Z,74.00
2022-12-26T01:49:36.248Z,74.90
2022-12-26T01:52:17.958Z,75.68
2022-12-26T01:54:48.223Z,76.90
2022-12-26T01:57:26.981Z,69.43
2022-12-26T01:59:55.245Z,70.47
2022-12-26T02:02:23.379Z,65.32
2022-12-26T02:05:10.674Z,65.78
2022-12-26T02:07:41.117Z,59.60
2022-12-26T02:10:13.324Z,61.60
2022-12-26T02:12:41.250Z,61.28
2022-12-26T02:15:12.169Z,63.25
2022-12-26T02:17:40.590Z,61.90
2022-12-26T02:20:25.142Z,62.20
2022-12-26T02:23:19.830Z,57.20
2022-12-26T02:26:11.876Z,56.67
2022-12-26T02:28:56.919Z,60.00
2022-12-26T02:31:37.484Z,61.03
2022-12-26T02:34:15.528Z,64.13
2022-12-26T02:36:57.156Z,59.15
2022-12-26T02:39:43.687Z,63.63
2022-12-26T02:43:01.855Z,63.67
2022-12-26T02:46:11.053Z,64.68
2022-12-26T02:49:06.417Z,65.10
2022-12-26T02:52:16.039Z,59.60
2022-12-26T02:55:23.571Z,62.63
2022-12-26T02:58:21.167Z,60.85
2022-12-26T03:01:08.195Z,59.10
2022-12-26T03:03:55.861Z,60.13
2022-12-26T03:06:43.760Z,59.22
2022-12-26T03:09:42.998Z,59.22
2022-12-26T03:13:01.029Z,52.58
2022-12-26T03:15:51.030Z,52.75
2022-12-26T03:18:19.808Z,48.95
2022-12-26T03:21:07.781Z,44.10
2022-12-26T03:23:36.241Z,43.85
2022-12-26T03:26:26.509Z,39.47
2022-12-26T03:29:18.682Z,37.55
2022-12-26T03:31:46.431Z,31.10
2022-12-26T03:34:19.593Z,31.05
2022-12-26T03:36:50.292Z,28.27
2022-12-26T03:40:05.544Z,28.25
2022-12-26T03:43:22.803Z,29.30
2022-12-26T03:46:37.847Z,26.88
2022-12-26T03:49:43.160Z,24.98
2022-12-26T03:52:31.525Z,24.45
2022-12-26T03:55:45.406Z,25.90
2022-12-26T03:58:45.159Z,24.67
2022-12-26T04:01:42.216Z,23.55
2022-12-26T04:04:30.428Z,19.50
2022-12-26T04:07:56.305Z,17.55
2022-12-26T04:10:51.333Z,18.75
2022-12-26T04:13:45.704Z,17.88
2022-12-26T04:16:56.857Z,16.90
2022-12-26T04:19:27.156Z,18.33
2022-12-26T04:22:26.315Z,12.68
2022-12-26T04:25:50.909Z,16.38
2022-12-26T04:28:35.769Z,16.77
2022-12-26T04:31:27.540Z,14.93
2022-12-26T04:34:21.639Z,14.77
2022-12-26T04:37:20.065Z,14.13
2022-12-26T04:40:08.245Z,14.20
2022-12-26T04:42:55.022Z,17.10
2022-12-26T04:45:22.674Z,13.43
2022-12-26T04:48:09.777Z,12.00
2022-12-26T04:50:37.211Z,11.50
2022-12-26T04:53:04.491Z,11.98
2022-12-26T04:55:33.229Z,13.35
2022-12-26T04:58:01.008Z,10.55
2022-12-26T05:00:29.406Z,12.48
2022-12-26T05:03:19.103Z,11.15
2022-12-26T05:06:07.550Z,11.27
2022-12-26T05:08:57.725Z,10.95
2022-12-26T05:11:25.472Z,10.85
2022-12-26T05:13:57.361Z,12.02
2022-12-26T05:16:43.924Z,11.82
2022-12-26T05:19:35.120Z,10.57
2022-12-26T05:22:22.854Z,13.10
2022-12-26T05:25:09.108Z,12.15
2022-12-26T05:27:58.057Z,12.45
2022-12-26T05:30:25.738Z,15.00
2022-12-26T05:33:12.125Z,13.07
2022-12-26T05:35:40.045Z,14.27
2022-12-26T05:38:08.215Z,12.07
2022-12-26T05:40:36.436Z,10.57
2022-12-26T05:43:03.782Z,14.05
2022-12-26T05:45:31.091Z,13.85
2022-12-26T05:48:00.275Z,12.57
2022-12-26T05:50:28.125Z,13.73
2022-12-26T05:52:57.985Z,10.60
2022-12-26T05:55:25.740Z,14.15
2022-12-26T05:57:53.043Z,11.98
2022-12-26T06:00:20.924Z,13.93
2022-12-26T06:02:48.470Z,9.52
2022-12-26T06:05:16.092Z,14.30
2022-12-26T06:07:43.389Z,10.65
2022-12-26T06:10:10.787Z,9.98
2022-12-26T06:12:38.186Z,11.30
2022-12-26T06:15:06.330Z,11.90
2022-12-26T06:17:33.647Z,12.60
2022-12-26T06:20:00.967Z,11.10
2022-12-26T06:22:30.211Z,10.32
2022-12-26T06:24:57.838Z,11.98
2022-12-26T06:27:25.155Z,10.45
2022-12-26T06:29:52.475Z,12.05
2022-12-26T06:32:19.756Z,11.57
2022-12-26T06:34:48.404Z,9.25
2022-12-26T06:37:15.751Z,8.88
2022-12-26T06:39:43.070Z,13.85
2022-12-26T06:42:10.334Z,11.48
2022-12-26T06:44:38.511Z,10.80
2022-12-26T06:47:05.879Z,9.23
2022-12-26T06:49:33.500Z,8.20
2022-12-26T06:52:00.889Z,10.40
2022-12-26T06:54:28.163Z,9.48
2022-12-26T06:56:55.461Z,11.98
2022-12-26T06:59:22.910Z,11.18
2022-12-26T07:01:50.421Z,11.70
2022-12-26T07:04:17.864Z,11.27
2022-12-26T07:06:45.796Z,12.77
2022-12-26T07:09:17.004Z,11.45
2022-12-26T07:11:46.772Z,9.18
2022-12-26T07:14:14.641Z,13.05
2022-12-26T07:16:43.412Z,8.13
2022-12-26T07:19:12.157Z,10.18
2022-12-26T07:21:41.251Z,10.82
2022-12-26T07:24:19.186Z,8.30
2022-12-26T07:26:47.053Z,8.40
2022-12-26T07:29:14.825Z,12.00
2022-12-26T07:31:42.778Z,10.95
2022-12-26T07:34:10.187Z,10.85
2022-12-26T07:36:37.658Z,9.50
2022-12-26T07:39:05.081Z,9.68
2022-12-26T07:41:51.280Z,12.02
2022-12-26T07:44:18.711Z,9.50
2022-12-26T07:46:47.434Z,15.25
2022-12-26T07:49:14.866Z,11.05
2022-12-26T07:51:43.034Z,11.45
2022-12-26T07:54:11.677Z,13.68
2022-12-26T07:56:39.889Z,10.15
2022-12-26T07:59:07.468Z,12.60
2022-12-26T08:01:34.928Z,12.02
2022-12-26T08:04:02.470Z,12.55
2022-12-26T08:06:29.905Z,17.60
2022-12-26T08:08:57.209Z,14.18
2022-12-26T08:11:24.942Z,9.25
2022-12-26T08:13:52.889Z,12.23
2022-12-26T08:16:21.060Z,11.85
2022-12-26T08:18:49.047Z,11.45
2022-12-26T08:21:16.540Z,11.77
2022-12-26T08:23:43.907Z,14.07
2022-12-26T08:26:12.847Z,13.40
2022-12-26T08:28:40.246Z,11.25
2022-12-26T08:31:09.165Z,10.07
2022-12-26T08:33:36.690Z,13.30
2022-12-26T08:36:09.655Z,11.68
2022-12-26T08:41:06.527Z,9.57
2022-12-26T08:44:03.628Z,8.27
2022-12-26T08:46:22.324Z,8.02
2022-12-26T08:48:50.807Z,5.68
2022-12-26T08:51:23.087Z,12.38
2022-12-26T08:53:51.320Z,11.13
2022-12-26T08:56:23.069Z,11.55
2022-12-26T08:58:50.944Z,9.75
2022-12-26T09:01:26.174Z,13.05
2022-12-26T09:03:57.083Z,12.40
2022-12-26T09:06:27.440Z,16.20
2022-12-26T09:08:55.018Z,13.55
2022-12-26T09:11:32.597Z,10.90
2022-12-26T09:14:01.740Z,13.98
2022-12-26T09:16:55.348Z,17.45
2022-12-26T09:22:52.050Z,16.70
2022-12-26T09:25:21.456Z,19.83
2022-12-26T09:27:51.932Z,17.25
2022-12-26T09:30:23.538Z,22.88
2022-12-26T09:32:51.139Z,14.65
2022-12-26T09:35:18.701Z,23.67
2022-12-26T09:37:46.053Z,20.98
2022-12-26T09:40:23.852Z,16.95
2022-12-26T09:43:10.190Z,24.38
2022-12-26T09:46:12.704Z,23.17
2022-12-26T09:49:01.845Z,19.80
2022-12-26T09:51:31.701Z,25.00
2022-12-26T09:53:59.933Z,24.20
2022-12-26T09:59:19.767Z,18.88
2022-12-26T10:01:49.287Z,18.48
2022-12-26T10:04:29.918Z,21.10
2022-12-26T10:07:22.179Z,20.13
2022-12-26T10:09:52.675Z,18.35
2022-12-26T10:12:28.277Z,23.10
2022-12-26T10:15:18.031Z,18.13
2022-12-26T10:17:57.166Z,15.95
2022-12-26T10:20:27.491Z,12.75
2022-12-26T10:22:55.026Z,17.23
2022-12-26T10:25:42.309Z,18.98
2022-12-26T10:28:35.023Z,11.93
2022-12-26T10:31:31.930Z,12.73
2022-12-26T10:34:11.292Z,19.83
2022-12-26T10:36:52.465Z,15.23
2022-12-26T10:39:46.185Z,14.77
2022-12-26T10:42:32.890Z,15.90
2022-12-26T10:45:00.696Z,9.70
2022-12-26T10:47:34.782Z,14.30
2022-12-26T10:50:02.460Z,13.18
2022-12-26T10:52:37.025Z,23.42
2022-12-26T10:55:27.955Z,12.55
2022-12-26T10:57:53.246Z,14.35
2022-12-26T11:00:23.173Z,15.10
2022-12-26T11:03:11.858Z,16.23
2022-12-26T11:08:47.497Z,13.05
2022-12-26T11:11:45.971Z,21.95
2022-12-26T11:14:38.488Z,16.10
2022-12-26T11:17:25.461Z,16.75
2022-12-26T11:20:10.334Z,14.25
2022-12-26T11:22:37.669Z,12.13
2022-12-26T11:25:17.020Z,14.70
2022-12-26T11:27:50.884Z,9.55
2022-12-26T11:30:33.814Z,12.48
2022-12-26T11:33:19.100Z,12.70
2022-12-26T11:35:52.921Z,12.80
2022-12-26T11:38:44.035Z,10.65
2022-12-26T11:41:40.258Z,17.27
2022-12-26T11:44:21.221Z,7.97
2022-12-26T11:46:59.561Z,12.63
2022-12-26T11:49:41.821Z,11.23
2022-12-26T11:52:37.692Z,10.43
2022-12-26T11:55:23.403Z,8.75
2022-12-26T11:58:09.564Z,10.48
2022-12-26T12:00:41.214Z,6.80
2022-12-26T12:03:26.226Z,8.20
2022-12-26T12:05:59.334Z,7.75
2022-12-26T12:08:44.783Z,9.30
2022-12-26T12:11:29.040Z,10.18
2022-12-26T12:14:19.609Z,11.57
2022-12-26T12:16:50.093Z,10.93
2022-12-26T12:19:39.204Z,9.98
2022-12-26T12:22:24.696Z,11.10
2022-12-26T12:25:42.926Z,11.30
2022-12-26T12:28:42.433Z,8.60
2022-12-26T12:31:29.514Z,4.95
2022-12-26T12:34:18.478Z,10.20
2022-12-26T12:37:14.719Z,5.97
2022-12-26T12:40:08.245Z,9.90
2022-12-26T12:42:47.286Z,7.35
2022-12-26T12:45:32.718Z,5.05
2022-12-26T12:48:18.320Z,8.48
2022-12-26T12:51:05.578Z,11.82
2022-12-26T12:54:05.308Z,8.25
2022-12-26T12:57:30.240Z,5.80
2022-12-26T13:00:21.682Z,13.43
2022-12-26T13:03:24.080Z,8.82
2022-12-26T13:06:15.668Z,9.52
2022-12-26T13:09:16.971Z,5.38
2022-12-26T13:12:01.465Z,9.30
2022-12-26T13:14:49.965Z,12.45
2022-12-26T13:17:26.532Z,10.70
2022-12-26T13:20:22.674Z,9.27
2022-12-26T13:23:31.384Z,6.10
2022-12-26T13:26:17.042Z,6.82
2022-12-26T13:29:01.474Z,8.68
2022-12-26T13:31:41.172Z,11.05
2022-12-26T13:34:19.503Z,8.98
2022-12-26T13:37:04.047Z,10.02
2022-12-26T13:39:35.179Z,7.50
2022-12-26T13:42:27.298Z,8.23
2022-12-26T13:44:55.473Z,15.20
2022-12-26T13:47:37.703Z,10.70
2022-12-26T13:50:47.177Z,13.17
2022-12-26T13:53:29.610Z,14.40
2022-12-26T13:56:05.351Z,11.65
2022-12-26T13:58:50.868Z,11.77
2022-12-26T14:02:07.223Z,10.82
2022-12-26T14:05:33.111Z,16.02
2022-12-26T14:08:13.784Z,13.25
2022-12-26T14:11:02.650Z,11.63
2022-12-26T14:13:33.949Z,9.27
2022-12-26T14:16:17.797Z,12.73
2022-12-26T14:19:20.684Z,12.45
2022-12-26T14:22:03.992Z,16.40
2022-12-26T14:24:58.365Z,7.20
2022-12-26T14:27:29.048Z,11.60
2022-12-26T14:30:16.215Z,9.75
2022-12-26T14:33:01.960Z,12.98
2022-12-26T14:38:20.550Z,8.85
2022-12-26T14:41:10.009Z,11.30
2022-12-26T14:43:37.540Z,14.70
2022-12-26T14:46:43.919Z,13.98
2022-12-26T14:49:35.490Z,11.85
2022-12-26T14:52:24.929Z,9.45
2022-12-26T14:54:55.792Z,11.88
2022-12-26T14:57:47.568Z,11.60
2022-12-26T15:00:23.196Z,10.63
2022-12-26T15:03:18.449Z,13.45
2022-12-26T15:05:49.642Z,13.77
2022-12-26T15:08:55.295Z,11.18
2022-12-26T15:11:57.447Z,14.60
2022-12-26T15:14:49.510Z,8.77
2022-12-26T15:17:54.573Z,16.58
2022-12-26T15:20:41.373Z,14.23
2022-12-26T15:23:48.557Z,16.08
2022-12-26T15:26:35.959Z,17.20
2022-12-26T15:29:23.494Z,9.98
2022-12-26T15:32:04.917Z,14.45
2022-12-26T15:34:53.959Z,9.98
2022-12-26T15:37:36.118Z,9.20
2022-12-26T15:40:25.945Z,20.35
2022-12-26T15:43:39.052Z,18.85
2022-12-26T15:46:27.661Z,16.55
2022-12-26T15:49:16.945Z,15.48
2022-12-26T15:52:06.113Z,15.55
2022-12-26T15:55:02.662Z,14.13
2022-12-26T15:58:17.245Z,15.95
2022-12-26T16:00:57.012Z,19.15
2022-12-26T16:03:45.910Z,14.50
2022-12-26T16:06:44.814Z,24.92
2022-12-26T16:09:34.712Z,19.55
2022-12-26T16:12:03.854Z,13.07
2022-12-26T16:14:37.968Z,15.75
2022-12-26T16:17:22.464Z,21.45
2022-12-26T16:19:51.953Z,20.08
2022-12-26T16:22:43.967Z,26.80
2022-12-26T16:25:20.878Z,30.83
2022-12-26T16:27:51.729Z,25.70
2022-12-26T16:30:24.922Z,19.58
2022-12-26T16:32:52.801Z,18.40
2022-12-26T16:35:36.823Z,23.48
2022-12-26T16:38:07.268Z,20.42
2022-12-26T16:40:45.639Z,17.88
2022-12-26T16:43:19.393Z,21.88
2022-12-26T16:45:50.832Z,18.23
2022-12-26T16:48:20.439Z,24.95
2022-12-26T16:50:57.521Z,18.15
2022-12-26T16:53:36.073Z,20.77
2022-12-26T16:56:22.227Z,17.98
2022-12-26T16:58:52.319Z,18.10
2022-12-26T17:01:22.142Z,26.35
2022-12-26T17:04:13.936Z,18.17
2022-12-26T17:06:49.109Z,19.40
2022-12-26T17:09:17.441Z,20.70
2022-12-26T17:11:56.338Z,21.65
2022-12-26T17:14:32.210Z,23.77
2022-12-26T17:17:08.742Z,16.95
2022-12-26T17:19:37.480Z,23.17
2022-12-26T17:22:26.222Z,20.70
2022-12-26T17:25:21.485Z,20.25
2022-12-26T17:28:12.507Z,17.88
2022-12-26T17:30:44.741Z,21.95
2022-12-26T17:33:28.056Z,16.98
2022-12-26T17:38:52.752Z,23.85
2022-12-26T17:41:20.565Z,22.92
2022-12-26T17:43:48.349Z,24.15
2022-12-26T17:46:17.479Z,19.52
2022-12-26T17:48:45.557Z,28.60
2022-12-26T17:51:16.307Z,23.38
2022-12-26T17:53:48.955Z,22.02
2022-12-26T17:56:27.178Z,21.67
2022-12-26T17:58:55.987Z,22.73
2022-12-26T18:01:23.556Z,23.80
2022-12-26T18:03:53.043Z,24.80
2022-12-26T18:06:21.984Z,26.20
2022-12-26T18:08:50.854Z,22.77
2022-12-26T18:11:18.388Z,21.17
2022-12-26T18:13:45.957Z,18.00
2022-12-26T18:16:19.108Z,22.40
2022-12-26T18:18:47.465Z,19.88
2022-12-26T18:21:15.955Z,16.60
2022-12-26T18:23:43.608Z,21.90
2022-12-26T18:26:22.406Z,18.80
2022-12-26T18:28:50.766Z,25.15
2022-12-26T18:31:18.365Z,17.02
2022-12-26T18:33:46.026Z,24.48
2022-12-26T18:36:14.766Z,20.02
2022-12-26T18:38:42.371Z,16.35
2022-12-26T18:41:15.349Z,16.60
2022-12-26T18:43:42.850Z,17.45
2022-12-26T18:46:17.414Z,15.98
2022-12-26T18:48:45.226Z,17.48
2022-12-26T18:51:12.749Z,12.18
2022-12-26T18:53:40.391Z,12.23
2022-12-26T18:56:11.299Z,14.27
2022-12-26T18:58:38.729Z,10.77
2022-12-26T19:01:06.345Z,12.25
2022-12-26T19:03:33.935Z,14.60
2022-12-26T19:06:01.389Z,19.10
2022-12-26T19:08:28.832Z,16.08
2022-12-26T19:10:56.240Z,10.07
2022-12-26T19:13:24.036Z,12.70
2022-12-26T19:15:51.598Z,12.85
2022-12-26T19:18:20.057Z,17.73
2022-12-26T19:20:47.564Z,11.13
2022-12-26T19:23:15.064Z,16.60
2022-12-26T19:25:43.782Z,19.13
2022-12-26T19:28:11.272Z,6.55
2022-12-26T19:30:48.743Z,9.75
2022-12-26T19:33:16.298Z,13.65
2022-12-26T19:35:43.835Z,17.60
2022-12-26T19:38:19.764Z,10.85
2022-12-26T19:40:47.227Z,13.18
2022-12-26T19:43:15.330Z,13.82
2022-12-26T19:45:42.699Z,16.10
2022-12-26T19:48:23.681Z,15.25
2022-12-26T19:50:54.083Z,8.63
2022-12-26T19:53:26.166Z,9.90
2022-12-26T19:55:53.966Z,12.38
2022-12-26T19:58:21.416Z,15.20
2022-12-26T20:00:49.576Z,11.90
2022-12-26T20:03:17.523Z,15.70
2022-12-26T20:05:44.894Z,15.32
2022-12-26T20:08:13.445Z,13.82
2022-12-26T20:10:40.864Z,10.82
2022-12-26T20:13:08.293Z,16.83
2022-12-26T20:15:35.777Z,16.25
2022-12-26T20:18:03.341Z,13.25
2022-12-26T20:20:30.858Z,16.33
2022-12-26T20:22:58.215Z,16.67
2022-12-26T20:25:25.661Z,11.30
2022-12-26T20:27:53.026Z,12.50
2022-12-26T20:30:20.395Z,17.00
2022-12-26T20:32:47.907Z,14.63
2022-12-26T20:35:15.703Z,16.67
2022-12-26T20:37:43.121Z,13.43
2022-12-26T20:40:11.213Z,14.15
2022-12-26T20:42:38.590Z,14.68
2022-12-26T20:45:06.513Z,16.00
2022-12-26T20:47:33.957Z,20.77
2022-12-26T20:50:03.106Z,19.08
2022-12-26T20:52:30.751Z,16.83
2022-12-26T20:54:58.206Z,14.25
2022-12-26T20:57:25.626Z,13.40
2022-12-26T20:59:53.396Z,19.98
2022-12-26T21:02:20.936Z,11.70
2022-12-26T21:04:48.536Z,16.45
2022-12-26T21:07:15.903Z,14.43
2022-12-26T21:09:46.402Z,16.92
2022-12-26T21:12:14.451Z,17.20
2022-12-26T21:14:42.235Z,14.38
2022-12-26T21:17:10.048Z,20.58
2022-12-26T21:19:37.455Z,8.10
2022-12-26T21:22:05.023Z,16.15
2022-12-26T21:24:33.294Z,18.73
2022-12-26T21:27:00.850Z,17.83
2022-12-26T21:29:33.367Z,13.55
2022-12-26T21:32:02.253Z,15.48
2022-12-26T21:34:31.673Z,15.75
2022-12-26T21:37:19.813Z,13.90
2022-12-26T21:39:47.629Z,19.00
2022-12-26T21:42:15.197Z,15.95
2022-12-26T21:44:42.763Z,17.20
2022-12-26T21:47:10.380Z,17.13
2022-12-26T21:49:38.296Z,11.05
2022-12-26T21:52:09.880Z,14.38
2022-12-26T21:54:56.763Z,16.75
2022-12-26T21:57:25.901Z,16.38
2022-12-26T21:59:56.138Z,15.32
2022-12-26T22:02:53.035Z,14.13
2022-12-26T22:05:22.804Z,13.80
2022-12-26T22:07:55.605Z,12.95
2022-12-26T22:10:43.189Z,17.05
2022-12-26T22:13:10.648Z,16.23
2022-12-26T22:16:01.346Z,15.15
2022-12-26T22:18:32.667Z,18.45
2022-12-26T22:21:15.718Z,14.68
2022-12-26T22:23:44.217Z,15.15
2022-12-26T22:26:14.326Z,14.27
2022-12-26T22:28:42.469Z,15.52
2022-12-26T22:31:20.258Z,20.52
2022-12-26T22:33:48.534Z,13.35
2022-12-26T22:36:16.080Z,13.82
2022-12-26T22:38:43.556Z,15.82
2022-12-26T22:41:10.985Z,14.50
2022-12-26T22:43:39.046Z,13.07
2022-12-26T22:46:07.351Z,18.95
2022-12-26T22:48:35.471Z,17.63
2022-12-26T22:51:02.939Z,15.32
2022-12-26T22:53:30.780Z,17.15
2022-12-26T22:56:00.746Z,20.73
2022-12-26T22:58:28.897Z,19.42
2022-12-26T23:00:56.453Z,16.45
2022-12-26T23:03:24.764Z,18.35
2022-12-26T23:05:52.860Z,17.73
2022-12-26T23:08:24.512Z,17.35
2022-12-26T23:10:58.972Z,20.92
2022-12-26T23:13:26.751Z,19.85
2022-12-26T23:15:59.710Z,17.17
2022-12-26T23:18:51.568Z,18.60
2022-12-26T23:21:40.535Z,19.90
2022-12-26T23:24:19.717Z,20.23
2022-12-26T23:26:53.816Z,18.42
2022-12-26T23:29:58.489Z,18.38
2022-12-26T23:32:26.093Z,24.02
2022-12-26T23:34:53.553Z,16.00
2022-12-26T23:37:20.971Z,19.73
2022-12-26T23:39:48.419Z,19.77
2022-12-26T23:42:15.912Z,16.02
2022-12-26T23:44:44.061Z,14.93
2022-12-26T23:47:11.641Z,24.92
2022-12-26T23:49:44.598Z,17.30
2022-12-26T23:54:40.021Z,12.32
2022-12-26T23:57:07.571Z,19.08
2022-12-26T23:59:34.923Z,14.48
